sensor_id;sensor_type;location;lat;lon;timestamp;P1;durP1;ratioP1;P2;durP2;ratioP2
19609;SDS011;9952;47.122;-1.638;2023-04-25T00:04:29;10.43;;;3.30;;
19609;SDS011;9952;47.122;-1.638;2023-04-25T00:09:09;7.77;;;2.77;;
19609;SDS011;9952;47.122;-1.638;2023-04-25T00:13:51;6.87;;;3.03;;
19609;SDS011;9952;47.122;-1.638;2023-04-25T00:18:31;11.13;;;3.40;;
19609;SDS011;9952;47.122;-1.638;2023-04-25T00:23:16;9.83;;;3.00;;
19609;SDS011;9952;47.122;-1.638;2023-04-25T00:28:00;6.07;;;2.87;;
19609;SDS011;9952;47.122;-1.638;2023-04-25T00:32:40;8.73;;;2.90;;
19609;SDS011;9952;47.122;-1.638;2023-04-25T00:37:21;5.93;;;3.00;;
19609;SDS011;9952;47.122;-1.638;2023-04-25T00:42:02;8.37;;;2.83;;
19609;SDS011;9952;47.122;-1.638;2023-04-25T00:46:43;6.40;;;2.87;;
19609;SDS011;9952;47.122;-1.638;2023-04-25T00:51:24;9.17;;;2.50;;
19609;SDS011;9952;47.122;-1.638;2023-04-25T00:56:06;6.67;;;2.57;;
19609;SDS011;9952;47.122;-1.638;2023-04-25T01:00:48;6.87;;;3.10;;
19609;SDS011;9952;47.122;-1.638;2023-04-25T01:05:31;6.33;;;2.83;;
19609;SDS011;9952;47.122;-1.638;2023-04-25T01:10:12;5.37;;;2.60;;
19609;SDS011;9952;47.122;-1.638;2023-04-25T01:14:53;5.57;;;2.93;;
19609;SDS011;9952;47.122;-1.638;2023-04-25T01:19:33;7.17;;;3.20;;
19609;SDS011;9952;47.122;-1.638;2023-04-25T01:24:15;7.03;;;3.37;;
19609;SDS011;9952;47.122;-1.638;2023-04-25T01:28:56;10.00;;;3.90;;
19609;SDS011;9952;47.122;-1.638;2023-04-25T01:33:38;8.83;;;3.80;;
19609;SDS011;9952;47.122;-1.638;2023-04-25T01:38:19;6.27;;;2.93;;
19609;SDS011;9952;47.122;-1.638;2023-04-25T01:43:00;11.17;;;2.90;;
19609;SDS011;9952;47.122;-1.638;2023-04-25T01:47:41;11.20;;;3.67;;
19609;SDS011;9952;47.122;-1.638;2023-04-25T01:52:23;5.73;;;3.53;;
19609;SDS011;9952;47.122;-1.638;2023-04-25T01:57:04;8.37;;;2.97;;
19609;SDS011;9952;47.122;-1.638;2023-04-25T02:01:45;10.73;;;3.07;;
19609;SDS011;9952;47.122;-1.638;2023-04-25T02:06:25;6.27;;;2.90;;
19609;SDS011;9952;47.122;-1.638;2023-04-25T02:11:06;7.77;;;2.53;;
19609;SDS011;9952;47.122;-1.638;2023-04-25T02:15:47;5.73;;;2.53;;
19609;SDS011;9952;47.122;-1.638;2023-04-25T02:20:28;8.80;;;3.00;;
19609;SDS011;9952;47.122;-1.638;2023-04-25T02:25:10;8.93;;;2.80;;
19609;SDS011;9952;47.122;-1.638;2023-04-25T02:29:51;7.07;;;2.60;;
19609;SDS011;9952;47.122;-1.638;2023-04-25T02:34:32;8.53;;;2.50;;
19609;SDS011;9952;47.122;-1.638;2023-04-25T02:39:13;4.90;;;2.40;;
19609;SDS011;9952;47.122;-1.638;2023-04-25T02:43:54;8.00;;;2.60;;
19609;SDS011;9952;47.122;-1.638;2023-04-25T02:48:34;6.03;;;2.40;;
19609;SDS011;9952;47.122;-1.638;2023-04-25T02:53:15;5.37;;;2.63;;
19609;SDS011;9952;47.122;-1.638;2023-04-25T02:57:56;3.83;;;2.30;;
19609;SDS011;9952;47.122;-1.638;2023-04-25T03:02:37;8.70;;;2.50;;
19609;SDS011;9952;47.122;-1.638;2023-04-25T03:07:17;8.40;;;2.50;;
19609;SDS011;9952;47.122;-1.638;2023-04-25T03:11:58;9.53;;;2.60;;
19609;SDS011;9952;47.122;-1.638;2023-04-25T03:16:39;13.47;;;3.13;;
19609;SDS011;9952;47.122;-1.638;2023-04-25T03:21:20;6.53;;;2.70;;
19609;SDS011;9952;47.122;-1.638;2023-04-25T03:26:01;6.10;;;2.50;;
19609;SDS011;9952;47.122;-1.638;2023-04-25T03:30:42;5.03;;;2.70;;
19609;SDS011;9952;47.122;-1.638;2023-04-25T03:35:23;7.27;;;2.63;;
19609;SDS011;9952;47.122;-1.638;2023-04-25T03:40:03;5.40;;;2.70;;
19609;SDS011;9952;47.122;-1.638;2023-04-25T03:44:45;6.63;;;2.33;;
19609;SDS011;9952;47.122;-1.638;2023-04-25T03:49:25;4.77;;;2.67;;
19609;SDS011;9952;47.122;-1.638;2023-04-25T03:54:06;7.30;;;2.50;;
19609;SDS011;9952;47.122;-1.638;2023-04-25T03:58:47;7.53;;;2.83;;
19609;SDS011;9952;47.122;-1.638;2023-04-25T04:03:28;5.27;;;2.67;;
19609;SDS011;9952;47.122;-1.638;2023-04-25T04:08:09;6.43;;;2.53;;
19609;SDS011;9952;47.122;-1.638;2023-04-25T04:12:50;4.37;;;2.70;;
19609;SDS011;9952;47.122;-1.638;2023-04-25T04:17:30;6.40;;;2.30;;
19609;SDS011;9952;47.122;-1.638;2023-04-25T04:22:11;6.57;;;2.27;;
19609;SDS011;9952;47.122;-1.638;2023-04-25T04:26:52;6.17;;;2.57;;
19609;SDS011;9952;47.122;-1.638;2023-04-25T04:31:33;7.43;;;2.93;;
19609;SDS011;9952;47.122;-1.638;2023-04-25T04:36:14;6.63;;;2.50;;
19609;SDS011;9952;47.122;-1.638;2023-04-25T04:40:55;7.50;;;2.77;;
19609;SDS011;9952;47.122;-1.638;2023-04-25T04:45:37;7.00;;;2.67;;
19609;SDS011;9952;47.122;-1.638;2023-04-25T04:50:20;8.10;;;2.67;;
19609;SDS011;9952;47.122;-1.638;2023-04-25T04:55:01;5.43;;;2.80;;
19609;SDS011;9952;47.122;-1.638;2023-04-25T04:59:43;5.80;;;2.80;;
19609;SDS011;9952;47.122;-1.638;2023-04-25T05:04:24;8.37;;;3.03;;
19609;SDS011;9952;47.122;-1.638;2023-04-25T05:09:05;7.67;;;3.70;;
19609;SDS011;9952;47.122;-1.638;2023-04-25T05:13:46;6.37;;;2.43;;
19609;SDS011;9952;47.122;-1.638;2023-04-25T05:18:27;9.23;;;3.20;;
19609;SDS011;9952;47.122;-1.638;2023-04-25T05:23:08;6.97;;;2.90;;
19609;SDS011;9952;47.122;-1.638;2023-04-25T05:27:49;6.30;;;2.50;;
19609;SDS011;9952;47.122;-1.638;2023-04-25T05:32:32;5.40;;;2.30;;
19609;SDS011;9952;47.122;-1.638;2023-04-25T05:37:13;6.77;;;2.77;;
19609;SDS011;9952;47.122;-1.638;2023-04-25T05:41:53;7.23;;;3.07;;
19609;SDS011;9952;47.122;-1.638;2023-04-25T05:46:46;6.43;;;3.10;;
19609;SDS011;9952;47.122;-1.638;2023-04-25T05:51:28;7.23;;;3.23;;
19609;SDS011;9952;47.122;-1.638;2023-04-25T05:56:09;4.67;;;3.07;;
19609;SDS011;9952;47.122;-1.638;2023-04-25T06:00:49;9.53;;;3.50;;
19609;SDS011;9952;47.122;-1.638;2023-04-25T06:05:30;6.53;;;3.43;;
19609;SDS011;9952;47.122;-1.638;2023-04-25T06:10:11;7.37;;;3.40;;
19609;SDS011;9952;47.122;-1.638;2023-04-25T06:14:52;6.83;;;3.77;;
19609;SDS011;9952;47.122;-1.638;2023-04-25T06:19:33;7.43;;;3.70;;
19609;SDS011;9952;47.122;-1.638;2023-04-25T06:24:14;8.73;;;3.73;;
19609;SDS011;9952;47.122;-1.638;2023-04-25T06:28:54;7.63;;;3.73;;
19609;SDS011;9952;47.122;-1.638;2023-04-25T06:33:35;10.40;;;4.20;;
19609;SDS011;9952;47.122;-1.638;2023-04-25T06:38:16;15.43;;;4.53;;
19609;SDS011;9952;47.122;-1.638;2023-04-25T06:42:57;14.33;;;4.23;;
19609;SDS011;9952;47.122;-1.638;2023-04-25T06:47:38;9.80;;;4.80;;
19609;SDS011;9952;47.122;-1.638;2023-04-25T06:52:26;12.87;;;4.67;;
19609;SDS011;9952;47.122;-1.638;2023-04-25T06:57:07;8.90;;;4.70;;
19609;SDS011;9952;47.122;-1.638;2023-04-25T07:06:50;11.10;;;4.87;;
19609;SDS011;9952;47.122;-1.638;2023-04-25T07:11:31;11.40;;;4.77;;
19609;SDS011;9952;47.122;-1.638;2023-04-25T07:16:12;16.47;;;5.70;;
19609;SDS011;9952;47.122;-1.638;2023-04-25T07:20:53;17.53;;;5.57;;
19609;SDS011;9952;47.122;-1.638;2023-04-25T07:25:33;14.03;;;5.10;;
19609;SDS011;9952;47.122;-1.638;2023-04-25T07:30:15;17.60;;;5.30;;
19609;SDS011;9952;47.122;-1.638;2023-04-25T07:34:56;15.40;;;5.30;;
19609;SDS011;9952;47.122;-1.638;2023-04-25T07:39:37;13.00;;;4.97;;
19609;SDS011;9952;47.122;-1.638;2023-04-25T07:44:18;20.43;;;5.70;;
19609;SDS011;9952;47.122;-1.638;2023-04-25T07:48:59;13.00;;;5.10;;
19609;SDS011;9952;47.122;-1.638;2023-04-25T07:53:40;15.10;;;5.70;;
19609;SDS011;9952;47.122;-1.638;2023-04-25T07:58:20;12.37;;;5.90;;
19609;SDS011;9952;47.122;-1.638;2023-04-25T08:03:01;13.13;;;5.20;;
19609;SDS011;9952;47.122;-1.638;2023-04-25T08:07:42;13.17;;;5.30;;
19609;SDS011;9952;47.122;-1.638;2023-04-25T08:12:23;14.63;;;5.80;;
19609;SDS011;9952;47.122;-1.638;2023-04-25T08:17:05;15.97;;;4.23;;
19609;SDS011;9952;47.122;-1.638;2023-04-25T08:21:45;13.17;;;4.77;;
19609;SDS011;9952;47.122;-1.638;2023-04-25T08:26:26;11.57;;;4.10;;
19609;SDS011;9952;47.122;-1.638;2023-04-25T08:31:08;13.93;;;4.27;;
19609;SDS011;9952;47.122;-1.638;2023-04-25T08:35:49;15.03;;;3.77;;
19609;SDS011;9952;47.122;-1.638;2023-04-25T08:40:30;10.83;;;3.17;;
19609;SDS011;9952;47.122;-1.638;2023-04-25T08:45:15;13.07;;;4.00;;
19609;SDS011;9952;47.122;-1.638;2023-04-25T08:49:56;13.10;;;3.93;;
19609;SDS011;9952;47.122;-1.638;2023-04-25T08:54:37;7.30;;;2.60;;
19609;SDS011;9952;47.122;-1.638;2023-04-25T08:59:59;13.83;;;3.30;;
19609;SDS011;9952;47.122;-1.638;2023-04-25T09:04:43;10.90;;;2.80;;
19609;SDS011;9952;47.122;-1.638;2023-04-25T09:09:24;10.13;;;3.13;;
19609;SDS011;9952;47.122;-1.638;2023-04-25T09:14:11;10.37;;;2.67;;
19609;SDS011;9952;47.122;-1.638;2023-04-25T09:19:05;10.20;;;2.63;;
19609;SDS011;9952;47.122;-1.638;2023-04-25T09:24:00;10.47;;;2.27;;
19609;SDS011;9952;47.122;-1.638;2023-04-25T09:28:41;6.77;;;1.87;;
19609;SDS011;9952;47.122;-1.638;2023-04-25T09:38:42;5.73;;;2.30;;
19609;SDS011;9952;47.122;-1.638;2023-04-25T09:43:24;6.97;;;2.10;;
19609;SDS011;9952;47.122;-1.638;2023-04-25T09:48:08;9.47;;;2.30;;
19609;SDS011;9952;47.122;-1.638;2023-04-25T09:53:02;10.90;;;2.30;;
19609;SDS011;9952;47.122;-1.638;2023-04-25T09:57:46;4.90;;;2.23;;
19609;SDS011;9952;47.122;-1.638;2023-04-25T10:02:32;6.50;;;2.37;;
19609;SDS011;9952;47.122;-1.638;2023-04-25T10:07:14;8.47;;;2.13;;
19609;SDS011;9952;47.122;-1.638;2023-04-25T10:11:56;8.20;;;2.40;;
19609;SDS011;9952;47.122;-1.638;2023-04-25T10:16:38;8.50;;;2.37;;
19609;SDS011;9952;47.122;-1.638;2023-04-25T10:21:20;4.17;;;1.73;;
19609;SDS011;9952;47.122;-1.638;2023-04-25T10:26:02;9.30;;;2.27;;
19609;SDS011;9952;47.122;-1.638;2023-04-25T10:31:01;6.97;;;2.00;;
19609;SDS011;9952;47.122;-1.638;2023-04-25T10:35:43;6.10;;;2.10;;
19609;SDS011;9952;47.122;-1.638;2023-04-25T10:40:26;6.47;;;2.10;;
19609;SDS011;9952;47.122;-1.638;2023-04-25T10:45:07;7.70;;;2.37;;
19609;SDS011;9952;47.122;-1.638;2023-04-25T10:49:48;9.13;;;1.90;;
19609;SDS011;9952;47.122;-1.638;2023-04-25T10:54:31;5.30;;;1.77;;
19609;SDS011;9952;47.122;-1.638;2023-04-25T10:59:13;11.37;;;2.67;;
19609;SDS011;9952;47.122;-1.638;2023-04-25T11:03:57;7.53;;;2.00;;
19609;SDS011;9952;47.122;-1.638;2023-04-25T11:08:45;6.00;;;2.17;;
19609;SDS011;9952;47.122;-1.638;2023-04-25T11:13:29;6.93;;;1.90;;
19609;SDS011;9952;47.122;-1.638;2023-04-25T11:18:10;7.67;;;1.93;;
19609;SDS011;9952;47.122;-1.638;2023-04-25T11:22:57;7.87;;;1.73;;
19609;SDS011;9952;47.122;-1.638;2023-04-25T11:27:53;3.77;;;1.80;;
19609;SDS011;9952;47.122;-1.638;2023-04-25T11:32:39;4.20;;;1.63;;
19609;SDS011;9952;47.122;-1.638;2023-04-25T11:37:21;5.17;;;1.57;;
19609;SDS011;9952;47.122;-1.638;2023-04-25T11:42:02;3.03;;;1.60;;
19609;SDS011;9952;47.122;-1.638;2023-04-25T11:46:45;5.50;;;1.90;;
19609;SDS011;9952;47.122;-1.638;2023-04-25T11:51:26;7.80;;;1.73;;
19609;SDS011;9952;47.122;-1.638;2023-04-25T11:56:10;10.30;;;2.33;;
19609;SDS011;9952;47.122;-1.638;2023-04-25T12:00:51;5.20;;;2.00;;
19609;SDS011;9952;47.122;-1.638;2023-04-25T12:05:33;5.43;;;2.20;;
19609;SDS011;9952;47.122;-1.638;2023-04-25T12:10:14;7.77;;;2.10;;
19609;SDS011;9952;47.122;-1.638;2023-04-25T12:14:56;7.57;;;1.70;;
19609;SDS011;9952;47.122;-1.638;2023-04-25T12:19:48;4.90;;;2.47;;
19609;SDS011;9952;47.122;-1.638;2023-04-25T12:24:29;9.73;;;2.37;;
19609;SDS011;9952;47.122;-1.638;2023-04-25T12:29:23;6.00;;;1.47;;
19609;SDS011;9952;47.122;-1.638;2023-04-25T12:34:06;4.67;;;1.43;;
19609;SDS011;9952;47.122;-1.638;2023-04-25T12:38:47;5.77;;;1.50;;
19609;SDS011;9952;47.122;-1.638;2023-04-25T12:43:28;6.27;;;2.17;;
19609;SDS011;9952;47.122;-1.638;2023-04-25T12:48:09;5.17;;;2.03;;
19609;SDS011;9952;47.122;-1.638;2023-04-25T12:52:50;6.73;;;2.40;;
19609;SDS011;9952;47.122;-1.638;2023-04-25T12:57:32;6.87;;;2.27;;
19609;SDS011;9952;47.122;-1.638;2023-04-25T13:02:13;7.00;;;2.50;;
19609;SDS011;9952;47.122;-1.638;2023-04-25T13:06:54;5.23;;;2.40;;
19609;SDS011;9952;47.122;-1.638;2023-04-25T13:11:35;6.67;;;2.17;;
19609;SDS011;9952;47.122;-1.638;2023-04-25T13:16:16;4.17;;;2.10;;
19609;SDS011;9952;47.122;-1.638;2023-04-25T13:20:58;7.90;;;2.53;;
19609;SDS011;9952;47.122;-1.638;2023-04-25T13:25:39;8.03;;;2.23;;
19609;SDS011;9952;47.122;-1.638;2023-04-25T13:30:20;7.30;;;2.87;;
19609;SDS011;9952;47.122;-1.638;2023-04-25T13:35:02;7.07;;;2.03;;
